Bamboo, North Carolina
Current Conditions -  °F | °C
As of 4:15 AM on Monday 24 Nov 2014 (Local Time) from KTNB Reporting Station
Clear Clear  
Wind Chill: 46°   Ceiling: Unl
Heat Index: 49°   Visibility: 10mi
Dew Point: 49°   Wind: 8mph
Humidity: 100%   Direction: 210°SSW
Pressure: 29.72"   Gusts: NA
Location:  36.0473°N, 81.8148°W
Report Text: KTNB 240915Z AUTO 21007KT 10SM CLR 10/10 A2972 RMK AO2 T00950095
Loading
Personal Weather Stations






























Interactive Weather Map New forecast layout! Learn more

10-Day Weather Forecast

Advertisements
Track Severe Weather on mobile